Time;durP1;ratioP1;P1;durP2;ratioP2;P2;SDS_P1;SDS_P2;PMS_P1;PMS_P2;Temp;Humidity;BMP_temperature;BMP_pressure;BME280_temperature;BME280_humidity;BME280_pressure;Samples;Min_cycle;Max_cycle;Signal;HPM_P1;HPM_P2
2021/04/21 00:02:22;;;;;;;7.97;7.15;;;;;;;14.52;66.83;100492.56;4884500;28;127300;-60
2021/04/21 00:04:49;;;;;;;7.55;6.85;;;;;;;14.58;66.54;100493.31;4886342;28;97993;-62
2021/04/21 00:07:19;;;;;;;7.38;6.68;;;;;;;14.50;66.94;100494.75;4885054;28;114997;-57
2021/04/21 00:09:50;;;;;;;7.15;6.45;;;;;;;14.50;66.79;100489.34;4903634;28;113477;-57
2021/04/21 00:12:17;;;;;;;7.43;6.72;;;;;;;14.41;67.01;100496.50;4901681;28;98534;-59
2021/04/21 00:14:45;;;;;;;7.00;6.35;;;;;;;14.47;66.58;100492.63;4901586;28;101829;-57
2021/04/21 00:17:11;;;;;;;7.20;6.50;;;;;;;14.39;66.78;100499.50;4901645;28;99288;-58
2021/04/21 00:19:38;;;;;;;6.88;6.28;;;;;;;14.35;66.88;100484.91;4901450;28;128943;-58
2021/04/21 00:22:05;;;;;;;8.02;6.80;;;;;;;14.39;66.56;100485.94;4903837;28;98050;-58
2021/04/21 00:24:32;;;;;;;6.63;6.03;;;;;;;14.36;66.44;100485.72;4900959;28;106469;-58
2021/04/21 00:26:58;;;;;;;7.20;6.35;;;;;;;14.35;66.35;100481.41;4917780;28;107503;-58
2021/04/21 00:29:24;;;;;;;6.80;6.20;;;;;;;14.30;66.52;100479.53;4900657;28;127796;-61
2021/04/21 00:31:50;;;;;;;6.70;6.10;;;;;;;14.27;66.48;100473.94;4900766;28;118200;-58
2021/04/21 00:34:20;;;;;;;7.38;6.25;;;;;;;14.23;66.73;100479.13;4900944;28;117997;-61
2021/04/21 00:36:49;;;;;;;6.38;5.80;;;;;;;14.21;66.49;100473.97;4901628;28;98341;-58
2021/04/21 00:39:16;;;;;;;7.07;5.85;;;;;;;14.22;66.52;100480.19;4900962;28;98816;-58
2021/04/21 00:42:19;;;;;;;7.30;6.57;;;;;;;14.18;66.41;100469.13;4900299;28;118118;-58
2021/04/21 00:45:04;;;;;;;6.60;6.00;;;;;;;14.10;66.58;100471.69;4884132;28;97894;-58
2021/04/21 00:47:37;;;;;;;6.57;5.97;;;;;;;14.06;66.52;100476.88;4900561;28;98445;-58
2021/04/21 00:50:09;;;;;;;6.50;5.90;;;;;;;14.06;66.73;100478.78;4901551;28;98682;-62
2021/04/21 00:53:00;;;;;;;7.47;6.13;;;;;;;13.99;66.60;100484.56;4903330;28;97954;-61
2021/04/21 00:55:37;;;;;;;6.60;6.00;;;;;;;14.02;66.53;100483.97;4901223;28;98143;-61
2021/04/21 00:58:21;;;;;;;6.28;5.68;;;;;;;13.97;66.66;100482.13;4916898;28;105109;-59
2021/04/21 01:00:47;;;;;;;6.53;5.93;;;;;;;14.00;66.67;100488.88;4901746;28;113572;-61
2021/04/21 01:03:21;;;;;;;6.95;6.32;;;;;;;13.90;66.57;100483.56;4902242;28;119923;-61
2021/04/21 01:06:08;;;;;;;6.32;5.75;;;;;;;13.90;67.07;100478.16;4916175;28;98938;-61
2021/04/21 01:08:50;;;;;;;6.70;6.10;;;;;;;13.90;66.75;100481.66;4896592;28;121220;-58
2021/04/21 01:11:42;;;;;;;6.75;6.15;;;;;;;13.83;66.80;100473.06;4881647;28;99134;-60
2021/04/21 01:14:15;;;;;;;6.78;6.13;;;;;;;13.80;66.72;100476.38;4882519;28;97914;-62
2021/04/21 01:16:41;;;;;;;;;;;;;;;13.78;66.97;100473.16;4885871;28;98244;-59
2021/04/21 01:19:49;;;;;;;7.10;6.40;;;;;;;13.78;66.62;100473.16;4900597;28;98301;-61
2021/04/21 01:22:41;;;;;;;6.90;6.30;;;;;;;13.69;66.84;100475.69;4899990;28;99669;-59
2021/04/21 01:25:23;;;;;;;7.03;6.32;;;;;;;13.68;66.44;100465.94;4868769;28;97956;-60
2021/04/21 01:28:03;;;;;;;6.80;6.20;;;;;;;13.69;66.92;100474.88;4882698;28;103631;-58
2021/04/21 01:30:30;;;;;;;7.50;6.80;;;;;;;13.72;66.25;100472.41;4915969;28;114431;-59
2021/04/21 01:33:00;;;;;;;7.80;6.70;;;;;;;13.68;66.48;100468.66;4885190;28;98960;-61
2021/04/21 01:35:26;;;;;;;7.68;6.97;;;;;;;13.68;66.63;100465.94;4900712;28;98759;-61
2021/04/21 01:37:54;;;;;;;7.63;6.82;;;;;;;13.70;66.46;100461.03;4904215;28;104200;-61
2021/04/21 01:40:26;;;;;;;7.70;7.00;;;;;;;13.65;66.63;100468.44;4903977;28;98269;-61
2021/04/21 01:42:54;;;;;;;7.93;7.20;;;;;;;13.62;66.82;100461.66;4872212;28;112574;-61
2021/04/21 01:45:26;;;;;;;8.43;7.63;;;;;;;13.58;66.67;100467.97;4904005;28;103169;-61
2021/04/21 01:47:53;;;;;;;7.88;7.07;;;;;;;13.58;65.95;100470.66;4888528;28;98041;-61
2021/04/21 01:50:19;;;;;;;8.05;7.25;;;;;;;13.54;66.49;100470.44;4871197;28;114065;-59
2021/04/21 01:53:31;;;;;;;8.00;7.20;;;;;;;13.50;66.60;100467.47;4888445;28;98703;-61
2021/04/21 01:56:29;;;;;;;8.32;7.53;;;;;;;13.49;66.44;100468.59;4902807;28;114473;-61
2021/04/21 01:59:16;;;;;;;8.35;7.55;;;;;;;13.48;66.50;100466.19;4908234;28;98656;-61
2021/04/21 02:02:12;;;;;;;8.43;7.68;;;;;;;13.48;66.60;100471.59;4905560;28;98125;-59
2021/04/21 02:05:07;;;;;;;8.10;7.30;;;;;;;13.42;66.73;100473.53;4903168;28;98445;-59
2021/04/21 02:08:01;;;;;;;8.70;7.88;;;;;;;13.38;66.58;100468.97;4889528;28;98126;-59
2021/04/21 02:10:43;;;;;;;8.43;7.63;;;;;;;13.38;66.53;100472.47;4905316;28;97832;-59
2021/04/21 02:13:20;;;;;;;9.02;8.05;;;;;;;13.39;66.23;100476.78;4903596;28;98368;-61
2021/04/21 02:16:17;;;;;;;8.30;7.50;;;;;;;13.33;66.39;100474.44;4902872;28;99271;-61
2021/04/21 02:19:04;;;;;;;8.27;7.47;;;;;;;13.33;66.07;100469.03;4903654;28;98346;-61
2021/04/21 02:21:58;;;;;;;8.57;7.72;;;;;;;13.28;66.59;100475.28;4906545;28;97827;-59
2021/04/21 02:24:29;;;;;;;8.70;7.90;;;;;;;13.30;66.12;100478.50;4903233;28;98924;-61
2021/04/21 02:27:05;;;;;;;8.70;7.80;;;;;;;13.18;66.49;100467.22;4902852;28;98801;-61
2021/04/21 02:29:46;;;;;;;9.30;8.40;;;;;;;13.23;66.37;100468.00;4904449;28;98296;-61
2021/04/21 02:32:37;;;;;;;8.43;7.63;;;;;;;13.23;66.24;100468.00;4903632;28;98095;-61
2021/04/21 02:35:14;;;;;;;9.10;8.23;;;;;;;13.23;66.27;100461.78;4889640;28;98555;-61
2021/04/21 02:38:18;;;;;;;8.63;7.72;;;;;;;13.19;66.20;100464.22;4903679;28;98320;-61
2021/04/21 02:40:54;;;;;;;9.10;8.20;;;;;;;13.14;66.24;100458.06;4893713;28;99702;-62
2021/04/21 02:44:09;;;;;;;9.20;8.32;;;;;;;13.14;66.35;100458.06;4903626;28;97844;-61
2021/04/21 02:47:14;;;;;;;8.70;7.90;;;;;;;13.08;66.09;100454.59;4902590;28;104096;-61
2021/04/21 02:49:44;;;;;;;8.95;8.05;;;;;;;13.16;66.14;100463.97;4897639;28;98804;-61
2021/04/21 02:52:16;;;;;;;8.70;7.90;;;;;;;13.15;66.20;100457.78;4883646;28;98644;-59
2021/04/21 02:55:25;;;;;;;9.05;8.15;;;;;;;13.10;66.19;100463.22;4895557;28;98040;-62
2021/04/21 02:58:27;;;;;;;9.30;8.40;;;;;;;13.13;66.24;100462.69;4885375;28;98431;-59
2021/04/21 03:01:31;;;;;;;9.15;8.18;;;;;;;13.12;66.38;100460.25;4903176;28;98089;-59
2021/04/21 03:04:10;;;;;;;8.68;7.88;;;;;;;13.15;66.30;100462.38;4888841;28;97855;-59
2021/04/21 03:06:39;;;;;;;9.10;8.13;;;;;;;13.12;66.26;100465.66;4918894;28;97701;-59
2021/04/21 03:09:09;;;;;;;9.13;7.93;;;;;;;13.12;66.31;100460.25;4902482;28;116749;-61
2021/04/21 03:11:35;;;;;;;9.25;8.23;;;;;;;13.16;66.15;100459.38;4902588;28;116330;-61
2021/04/21 03:14:14;;;;;;;8.85;7.97;;;;;;;13.18;66.30;100459.91;4901876;28;103052;-61
2021/04/21 03:17:04;;;;;;;8.63;7.70;;;;;;;13.15;66.24;100462.38;4902493;28;109423;-61
2021/04/21 03:19:54;;;;;;;8.85;8.02;;;;;;;13.12;66.46;100455.63;4895079;28;98489;-62
2021/04/21 03:22:21;;;;;;;9.07;8.18;;;;;;;13.13;66.47;100456.47;4888052;28;122750;-59
2021/04/21 03:25:17;;;;;;;8.52;7.72;;;;;;;13.09;66.36;100460.81;4902401;28;98068;-59
2021/04/21 03:27:46;;;;;;;8.93;8.13;;;;;;;13.11;66.31;100454.03;4903265;28;97849;-61
2021/04/21 03:30:15;;;;;;;9.15;8.25;;;;;;;13.16;66.19;100461.28;4885316;28;115285;-61
2021/04/21 03:32:46;;;;;;;9.45;8.55;;;;;;;13.16;66.02;100462.09;4884543;28;120410;-59
2021/04/21 03:35:12;;;;;;;9.23;8.43;;;;;;;13.14;66.53;100464.28;4896608;28;98162;-61
2021/04/21 03:37:46;;;;;;;8.88;8.07;;;;;;;13.13;66.32;100459.97;4899510;28;97916;-59
2021/04/21 03:40:13;;;;;;;8.82;8.00;;;;;;;13.16;66.18;100463.97;4918096;28;98153;-59
2021/04/21 03:42:39;;;;;;;9.07;8.30;;;;;;;13.13;66.35;100464.56;4904836;28;98830;-59
2021/04/21 03:45:06;;;;;;;9.00;8.18;;;;;;;13.14;66.43;100463.47;4901198;28;128443;-61
2021/04/21 03:47:33;;;;;;;9.07;8.27;;;;;;;13.13;66.40;100457.25;4905055;28;97785;-61
2021/04/21 03:49:59;;;;;;;9.50;8.52;;;;;;;13.14;66.37;100460.78;4901784;28;101747;-59
2021/04/21 03:52:25;;;;;;;8.88;8.00;;;;;;;13.15;66.41;100457.78;4884743;28;128046;-61
2021/04/21 03:54:52;;;;;;;9.23;8.40;;;;;;;13.18;66.38;100457.22;4901553;28;98364;-59
2021/04/21 03:57:18;;;;;;;9.13;8.23;;;;;;;13.16;66.35;100453.97;4901314;28;118430;-59
2021/04/21 03:59:44;;;;;;;9.18;8.07;;;;;;;13.20;65.92;100452.34;4900712;28;115461;-59
2021/04/21 04:02:10;;;;;;;9.02;8.13;;;;;;;13.17;66.55;100457.50;4884428;28;128065;-61
2021/04/21 04:04:39;;;;;;;9.85;8.85;;;;;;;13.14;66.74;100466.19;4884996;28;97932;-61
2021/04/21 04:07:09;;;;;;;9.32;8.43;;;;;;;13.15;66.60;100465.88;4903468;28;98029;-59
2021/04/21 04:09:35;;;;;;;9.05;8.25;;;;;;;13.22;66.54;100462.88;4901016;28;98415;-59
2021/04/21 04:12:05;;;;;;;9.32;8.43;;;;;;;13.21;66.51;100461.25;4882479;28;98990;-61
2021/04/21 04:14:33;;;;;;;9.32;8.40;;;;;;;13.19;66.70;100460.72;4882261;28;98490;-59
2021/04/21 04:17:01;;;;;;;9.77;8.77;;;;;;;13.22;66.70;100462.88;4883717;28;97958;-59
2021/04/21 04:19:28;;;;;;;9.00;8.20;;;;;;;13.22;66.78;100462.88;4897689;28;98383;-59
2021/04/21 04:22:08;;;;;;;9.00;8.10;;;;;;;13.21;66.70;100466.66;4902083;28;98512;-59
2021/04/21 04:24:52;;;;;;;9.52;8.63;;;;;;;13.19;66.97;100468.84;4903139;28;98369;-59
2021/04/21 04:27:20;;;;;;;9.18;8.30;;;;;;;13.26;66.89;100472.06;4901556;28;97939;-59
2021/04/21 04:29:47;;;;;;;9.93;8.95;;;;;;;13.29;66.48;100470.69;4903435;28;106247;-61
2021/04/21 04:32:18;;;;;;;9.38;8.48;;;;;;;13.32;66.75;100464.69;4903050;28;118682;-59
2021/04/21 04:34:46;;;;;;;9.27;8.38;;;;;;;13.41;66.46;100469.22;4903580;28;98397;-59
2021/04/21 04:37:17;;;;;;;9.77;8.77;;;;;;;13.38;66.71;100475.19;4903721;28;97884;-59
2021/04/21 04:39:43;;;;;;;9.77;8.75;;;;;;;13.47;66.41;100467.25;4916273;28;115151;-61
2021/04/21 04:42:10;;;;;;;9.45;8.50;;;;;;;13.50;66.40;100470.19;4903136;28;98359;-61
2021/04/21 04:44:41;;;;;;;9.38;8.48;;;;;;;13.55;66.35;100473.94;4902844;28;112833;-59
2021/04/21 04:47:30;;;;;;;10.18;9.18;;;;;;;13.49;66.68;100482.13;4902959;28;102904;-61
2021/04/21 04:50:07;;;;;;;10.07;9.07;;;;;;;13.55;66.24;100485.56;4901232;28;98566;-59
2021/04/21 04:52:36;;;;;;;9.90;9.00;;;;;;;13.57;66.31;100482.59;4902946;28;98325;-59
2021/04/21 04:55:04;;;;;;;10.73;9.63;;;;;;;13.47;66.33;100491.63;4900610;28;112774;-61
2021/04/21 04:57:31;;;;;;;10.82;9.82;;;;;;;13.53;66.36;100479.66;4902768;28;108108;-61
2021/04/21 05:00:02;;;;;;;11.25;10.15;;;;;;;13.50;66.73;100483.72;4902553;28;98034;-61
2021/04/21 05:02:31;;;;;;;11.97;10.53;;;;;;;13.51;66.71;100482.63;4900051;28;115056;-61
2021/04/21 05:04:59;;;;;;;10.93;9.88;;;;;;;13.58;66.58;100481.50;4902039;28;97936;-61
2021/04/21 05:07:52;;;;;;;10.43;9.32;;;;;;;13.61;66.67;100484.44;4902614;28;100444;-63
2021/04/21 05:10:36;;;;;;;10.73;9.70;;;;;;;13.72;66.46;100493.28;4894961;28;98449;-59
2021/04/21 05:13:06;;;;;;;10.07;9.07;;;;;;;13.84;66.44;100490.97;4902432;28;100883;-61
2021/04/21 05:15:37;;;;;;;10.95;9.85;;;;;;;13.89;66.30;100496.31;4892970;28;98123;-59
2021/04/21 05:18:25;;;;;;;10.93;9.93;;;;;;;14.06;66.35;100493.13;4902938;28;98212;-59
2021/04/21 05:21:33;;;;;;;14.13;12.02;;;;;;;14.12;65.80;100497.41;4901620;28;98446;-60
2021/04/21 05:24:39;;;;;;;13.35;11.82;;;;;;;14.20;65.82;100490.53;4881618;28;98611;-61
2021/04/21 05:27:27;;;;;;;13.20;11.90;;;;;;;14.25;65.69;100495.88;4901122;28;98037;-59
2021/04/21 05:30:39;;;;;;;13.38;12.07;;;;;;;14.29;65.71;100496.91;4902673;28;104890;-59
2021/04/21 05:33:30;;;;;;;13.40;11.73;;;;;;;14.37;65.67;100493.56;4901391;28;98580;-59
2021/04/21 05:36:36;;;;;;;12.73;11.43;;;;;;;14.40;65.84;100506.53;4902460;28;98203;-61
2021/04/21 05:39:52;;;;;;;12.80;11.30;;;;;;;14.47;65.38;100498.84;4900668;28;99176;-59
2021/04/21 05:42:46;;;;;;;12.80;11.40;;;;;;;14.47;65.63;100503.47;4903241;28;97787;-61
2021/04/21 05:45:48;;;;;;;12.48;11.23;;;;;;;14.46;65.58;100508.09;4901580;28;99219;-59
2021/04/21 05:48:45;;;;;;;12.45;11.15;;;;;;;14.48;66.01;100505.06;4901461;28;98260;-62
2021/04/21 05:51:47;;;;;;;13.10;11.70;;;;;;;14.46;65.94;100513.50;4900134;28;97841;-59
2021/04/21 05:54:50;;;;;;;12.90;11.50;;;;;;;14.49;65.94;100521.06;4901365;28;98049;-59
2021/04/21 05:57:56;;;;;;;12.43;11.23;;;;;;;14.52;66.15;100516.19;4900288;28;98543;-61
2021/04/21 06:01:02;;;;;;;11.95;10.75;;;;;;;14.56;66.08;100518.00;4882768;28;98526;-59
2021/04/21 06:03:29;;;;;;;11.65;10.45;;;;;;;14.67;65.89;100518.69;4880760;28;98199;-58
2021/04/21 06:06:04;;;;;;;12.38;11.07;;;;;;;15.11;64.24;100526.41;4865002;28;97884;-59
2021/04/21 06:08:31;;;;;;;12.05;10.85;;;;;;;15.45;63.37;100518.00;4882374;28;111489;-59
2021/04/21 06:10:58;;;;;;;11.27;10.25;;;;;;;15.79;62.70;100510.59;4900834;28;109121;-61
2021/04/21 06:13:31;;;;;;;11.25;10.15;;;;;;;16.17;61.73;100508.50;4902128;28;97774;-59
2021/04/21 06:15:57;;;;;;;11.25;10.02;;;;;;;16.49;61.26;100509.47;4902500;28;97878;-59
2021/04/21 06:18:23;;;;;;;10.95;9.48;;;;;;;16.81;59.99;100508.50;4902154;28;98941;-59
2021/04/21 06:20:50;;;;;;;10.57;9.57;;;;;;;17.10;59.75;100502.66;4902406;28;99167;-61
2021/04/21 06:23:19;;;;;;;10.32;9.23;;;;;;;17.42;59.20;100501.56;4920038;28;97972;-61
2021/04/21 06:25:59;;;;;;;9.95;8.95;;;;;;;17.79;58.42;100507.69;4905402;28;97605;-61
2021/04/21 06:28:25;;;;;;;10.00;9.10;;;;;;;17.97;58.26;100514.81;4905058;28;109732;-61
2021/04/21 06:31:10;;;;;;;10.93;9.07;;;;;;;18.28;57.80;100503.84;4904030;28;126918;-59
2021/04/21 06:33:39;;;;;;;9.93;9.02;;;;;;;18.68;56.89;100505.66;4905310;28;98236;-61
2021/04/21 06:36:06;;;;;;;10.27;9.32;;;;;;;18.96;56.30;100517.09;4905422;28;97827;-61
2021/04/21 06:38:34;;;;;;;9.55;8.68;;;;;;;19.33;55.87;100512.84;4905407;28;99088;-59
2021/04/21 06:41:00;;;;;;;9.75;8.85;;;;;;;19.61;54.97;100510.56;4903183;28;114499;-60
2021/04/21 06:43:44;;;;;;;9.65;8.68;;;;;;;19.97;54.42;100514.78;4904528;28;112210;-59
2021/04/21 06:46:10;;;;;;;9.23;8.32;;;;;;;20.26;54.23;100512.03;4904700;28;115790;-59
2021/04/21 06:48:38;;;;;;;9.35;8.50;;;;;;;20.58;53.96;100512.50;4887387;28;98006;-59
2021/04/21 06:51:12;;;;;;;9.30;8.50;;;;;;;20.70;53.36;100507.09;4902797;28;98498;-59
2021/04/21 06:53:39;;;;;;;8.88;8.02;;;;;;;21.10;52.84;100512.06;4905239;28;98136;-62
2021/04/21 06:56:06;;;;;;;9.10;8.35;;;;;;;21.20;51.55;100510.84;4905465;28;97884;-62
2021/04/21 06:58:35;;;;;;;8.50;7.75;;;;;;;21.38;51.42;100516.97;4902690;28;98603;-62
2021/04/21 07:01:11;;;;;;;8.27;7.47;;;;;;;21.83;50.40;100521.63;4903325;28;98648;-60
2021/04/21 07:03:37;;;;;;;7.78;7.07;;;;;;;22.43;49.19;100523.56;4905248;28;98056;-60
2021/04/21 07:06:04;;;;;;;8.10;7.30;;;;;;;22.84;48.18;100521.66;4902603;28;98067;-60
2021/04/21 07:08:36;;;;;;;6.90;6.30;;;;;;;22.90;48.10;100525.75;4905092;28;98482;-62
2021/04/21 07:11:03;;;;;;;6.75;6.15;;;;;;;22.90;48.63;100522.19;4904497;28;99209;-62
2021/04/21 07:13:49;;;;;;;7.22;6.53;;;;;;;22.91;49.28;100535.66;4902312;28;98120;-60
2021/04/21 07:16:28;;;;;;;6.82;6.22;;;;;;;23.08;48.76;100531.00;4902293;28;97857;-60
2021/04/21 07:18:59;;;;;;;7.70;7.00;;;;;;;23.26;48.14;100527.59;4902237;28;112022;-62
2021/04/21 07:21:29;;;;;;;7.60;6.93;;;;;;;23.62;47.96;100531.28;4901397;28;116148;-60
2021/04/21 07:23:58;;;;;;;6.28;5.40;;;;;;;23.99;48.15;100529.09;4903825;28;98871;-62
2021/04/21 07:26:31;;;;;;;5.95;5.32;;;;;;;23.73;49.11;100529.59;4886796;28;98021;-62
2021/04/21 07:28:57;;;;;;;5.97;5.43;;;;;;;24.26;48.39;100526.56;4885472;28;100292;-60
2021/04/21 07:31:23;;;;;;;5.63;5.10;;;;;;;24.70;46.57;100524.41;4903185;28;127323;-62
2021/04/21 07:33:50;;;;;;;6.22;5.60;;;;;;;25.26;45.63;100523.19;4902360;28;127074;-62
2021/04/21 07:36:23;;;;;;;5.13;4.65;;;;;;;25.20;46.37;100522.72;4904394;28;98065;-62
2021/04/21 07:38:51;;;;;;;5.03;4.55;;;;;;;25.01;47.58;100522.69;4903962;28;98951;-60
2021/04/21 07:41:41;;;;;;;4.82;4.30;;;;;;;24.74;47.95;100527.25;4903681;28;98738;-61
2021/04/21 07:44:50;;;;;;;4.90;4.50;;;;;;;25.54;46.40;100525.66;4902034;28;98190;-63
2021/04/21 07:47:16;;;;;;;4.60;4.20;;;;;;;25.65;46.63;100529.41;4904453;28;97721;-61
2021/04/21 07:49:53;;;;;;;4.28;3.90;;;;;;;25.74;47.06;100526.41;4903187;28;98381;-63
2021/04/21 07:52:24;;;;;;;4.72;4.10;;;;;;;26.18;46.05;100523.22;4903316;28;102677;-61
2021/04/21 07:55:09;;;;;;;4.22;3.55;;;;;;;26.60;45.62;100519.47;4903246;28;98107;-63
2021/04/21 07:57:35;;;;;;;4.13;3.67;;;;;;;26.81;45.30;100518.97;4902865;28;103125;-62
2021/04/21 08:00:02;;;;;;;4.30;3.67;;;;;;;27.48;44.32;100512.63;4903785;28;98843;-63
2021/04/21 08:02:32;;;;;;;3.85;3.45;;;;;;;27.93;43.32;100511.44;4900471;28;110341;-61
2021/04/21 08:05:00;;;;;;;3.70;3.30;;;;;;;28.99;41.26;100518.81;4917311;28;116548;-63
2021/04/21 08:07:43;;;;;;;3.65;3.35;;;;;;;30.01;39.55;100518.56;4904112;28;97839;-61
2021/04/21 08:10:24;;;;;;;3.83;3.33;;;;;;;30.62;38.35;100521.25;4899834;28;107106;-61
2021/04/21 08:12:55;;;;;;;4.13;3.23;;;;;;;30.67;38.39;100520.81;4903748;28;99147;-64
2021/04/21 08:15:30;;;;;;;5.97;2.72;;;;;;;31.76;36.18;100515.84;4903178;28;97865;-64
2021/04/21 08:17:58;;;;;;;3.25;2.80;;;;;;;32.45;35.25;100516.78;4903975;28;97904;-61
2021/04/21 08:20:27;;;;;;;4.00;2.90;;;;;;;33.36;33.41;100515.22;4902681;28;99052;-64
2021/04/21 08:22:55;;;;;;;2.65;2.28;;;;;;;33.62;33.68;100515.66;4900286;28;98614;-61
2021/04/21 08:25:21;;;;;;;3.78;2.47;;;;;;;34.03;33.03;100517.38;4902580;28;98226;-64
2021/04/21 08:27:47;;;;;;;2.97;2.08;;;;;;;34.83;31.80;100516.22;4902377;28;98126;-64
2021/04/21 08:30:15;;;;;;;2.42;2.20;;;;;;;35.51;31.51;100514.72;4901469;28;110689;-61
2021/04/21 08:32:41;;;;;;;3.47;2.05;;;;;;;35.94;30.83;100510.84;4903237;28;98163;-64
2021/04/21 08:35:08;;;;;;;2.70;2.10;;;;;;;36.30;30.50;100504.28;4901442;28;127664;-62
2021/04/21 08:37:34;;;;;;;2.58;1.90;;;;;;;36.50;30.10;100510.56;4903490;28;98143;-61
2021/04/21 08:40:01;;;;;;;2.75;1.98;;;;;;;33.68;34.70;100509.16;4902362;28;98984;-64
2021/04/21 08:42:27;;;;;;;2.70;2.30;;;;;;;32.04;37.02;100497.31;4903190;28;98468;-64
2021/04/21 08:44:53;;;;;;;2.88;1.98;;;;;;;31.32;37.48;100496.28;4884644;28;115752;-61
2021/04/21 08:47:19;;;;;;;3.30;2.25;;;;;;;31.47;37.18;100495.75;4901551;28;106104;-61
2021/04/21 08:49:45;;;;;;;3.20;2.20;;;;;;;33.87;33.48;100501.25;4900446;28;117422;-61
2021/04/21 08:52:16;;;;;;;4.00;1.92;;;;;;;35.58;30.57;100494.94;4902221;28;112338;-64
2021/04/21 08:54:43;;;;;;;2.70;2.00;;;;;;;37.15;28.68;100512.25;4902601;28;98016;-64
2021/04/21 08:57:10;;;;;;;2.40;2.00;;;;;;;38.23;27.28;100512.28;4886172;28;97903;-62
2021/04/21 08:59:37;;;;;;;3.72;1.80;;;;;;;38.60;27.50;100504.16;4883803;28;105283;-65
2021/04/21 09:02:03;;;;;;;3.30;1.77;;;;;;;37.49;29.17;100505.16;4885332;28;98824;-64
2021/04/21 09:04:29;;;;;;;2.88;1.80;;;;;;;37.26;29.47;100495.84;4900397;28;114850;-61
2021/04/21 09:06:55;;;;;;;2.00;1.58;;;;;;;38.15;28.06;100502.53;4903381;28;97926;-62
2021/04/21 09:09:22;;;;;;;3.28;1.70;;;;;;;38.88;26.54;100503.09;4901434;28;128444;-62
2021/04/21 09:11:48;;;;;;;2.85;1.63;;;;;;;39.60;26.22;100495.34;4884767;28;98405;-62
2021/04/21 09:14:14;;;;;;;3.45;1.70;;;;;;;39.65;25.96;100497.53;4901300;28;128183;-62
2021/04/21 09:16:40;;;;;;;2.83;1.52;;;;;;;38.65;27.50;100490.25;4902849;28;97967;-62
2021/04/21 09:19:14;;;;;;;2.08;1.50;;;;;;;38.68;27.79;100494.19;4902024;28;99081;-64
2021/04/21 09:21:41;;;;;;;2.08;1.42;;;;;;;38.81;27.94;100492.09;4902570;28;98408;-62
2021/04/21 09:24:26;;;;;;;2.20;1.55;;;;;;;39.21;27.41;100489.28;4901740;28;98599;-64
2021/04/21 09:26:52;;;;;;;2.35;1.50;;;;;;;40.10;26.06;100486.81;4900689;28;98390;-65
2021/04/21 09:29:29;;;;;;;2.75;1.60;;;;;;;40.86;25.11;100482.91;4900323;28;98938;-60
2021/04/21 09:32:06;;;;;;;2.15;1.45;;;;;;;41.84;23.73;100482.59;4900999;28;98674;-62
2021/04/21 09:34:32;;;;;;;2.72;1.60;;;;;;;42.42;23.25;100478.31;4901236;28;98673;-62
2021/04/21 09:36:58;;;;;;;2.63;1.45;;;;;;;42.85;22.28;100479.56;4900077;28;98006;-60
2021/04/21 09:39:24;;;;;;;3.25;1.70;;;;;;;43.39;21.65;100470.84;4899057;28;128634;-60
2021/04/21 09:41:59;;;;;;;2.25;1.27;;;;;;;43.50;21.58;100465.31;4902120;28;98447;-62
2021/04/21 09:44:28;;;;;;;2.75;1.70;;;;;;;43.70;21.48;100467.38;4900289;28;98470;-62
2021/04/21 09:46:55;;;;;;;2.05;1.23;;;;;;;44.36;21.00;100468.63;4902934;28;97879;-60
2021/04/21 09:49:38;;;;;;;2.50;1.40;;;;;;;44.65;20.49;100455.44;4901188;28;99257;-63
2021/04/21 09:52:13;;;;;;;3.35;1.40;;;;;;;45.15;19.86;100447.31;4902314;28;99652;-63
2021/04/21 09:54:46;;;;;;;2.30;1.40;;;;;;;44.95;20.08;100444.56;4901208;28;98530;-62
2021/04/21 09:57:14;;;;;;;2.22;1.40;;;;;;;45.22;19.57;100440.38;4905158;28;97889;-60
2021/04/21 09:59:40;;;;;;;2.75;1.48;;;;;;;45.27;19.67;100436.75;4904802;28;117678;-62
2021/04/21 10:02:38;;;;;;;4.00;1.60;;;;;;;45.51;19.46;100439.22;4905910;28;98347;-63
2021/04/21 10:05:27;;;;;;;4.68;2.95;;;;;;;40.81;13.27;100420.66;4904835;28;120574;-63
2021/04/21 10:08:22;;;;;;;3.80;2.78;;;;;;;39.47;13.98;100421.44;4906211;28;97697;-62
2021/04/21 10:11:03;;;;;;;4.78;3.13;;;;;;;38.45;14.79;100413.84;4905336;28;100584;-62
2021/04/21 10:13:48;;;;;;;5.53;3.10;;;;;;;37.93;15.17;100418.16;4905649;28;98879;-59
2021/04/21 10:16:15;;;;;;;5.88;2.90;;;;;;;37.13;15.13;100419.22;4904431;28;97958;-62
2021/04/21 10:18:42;;;;;;;5.40;2.83;;;;;;;37.33;14.74;100416.16;4906005;28;97758;-62
2021/04/21 10:21:08;;;;;;;4.05;2.78;;;;;;;37.02;14.79;100416.78;4904983;28;97942;-62
2021/04/21 10:23:34;;;;;;;4.95;3.30;;;;;;;36.94;14.64;100411.81;4903334;28;98023;-59
2021/04/21 10:26:11;;;;;;;4.40;3.33;;;;;;;36.86;14.89;100406.44;4904116;28;115637;-59
2021/04/21 10:28:40;;;;;;;4.78;3.10;;;;;;;36.71;14.73;100410.91;4904958;28;109266;-59
2021/04/21 10:31:10;;;;;;;4.55;3.00;;;;;;;36.96;14.80;100409.38;4904419;28;99314;-62
2021/04/21 10:33:37;;;;;;;4.55;2.65;;;;;;;36.64;14.91;100407.56;4905420;28;105750;-62
2021/04/21 10:36:04;;;;;;;5.03;3.00;;;;;;;36.60;15.24;100408.44;4903914;28;98311;-59
2021/04/21 10:38:30;;;;;;;4.85;2.80;;;;;;;36.49;15.08;100398.78;4905165;28;97870;-62
2021/04/21 10:41:36;;;;;;;5.97;2.63;;;;;;;36.60;14.70;100399.25;4885401;28;112214;-59
2021/04/21 10:44:16;;;;;;;3.85;2.55;;;;;;;35.41;15.21;100407.28;4873769;28;98446;-59
2021/04/21 10:46:57;;;;;;;5.50;3.30;;;;;;;31.04;18.16;100404.19;4904491;28;98435;-61
2021/04/21 10:50:01;;;;;;;4.47;3.17;;;;;;;33.18;18.33;100395.44;4904989;28;97989;-59
2021/04/21 10:52:27;;;;;;;4.13;2.85;;;;;;;33.86;16.65;100401.88;4902599;28;98616;-58
2021/04/21 10:55:13;;;;;;;3.97;3.08;;;;;;;30.20;19.16;100393.09;4904037;28;99309;-59
2021/04/21 10:58:13;;;;;;;5.95;3.20;;;;;;;30.64;19.15;100388.13;4918247;28;98118;-58
2021/04/21 11:00:50;;;;;;;3.85;3.10;;;;;;;32.71;18.21;100394.56;4897959;28;97918;-58
2021/04/21 11:03:41;;;;;;;4.55;2.65;;;;;;;33.10;17.24;100402.38;4903841;28;99241;-61
2021/04/21 11:06:07;;;;;;;4.45;2.33;;;;;;;29.88;19.49;100401.50;4902646;28;120705;-61
2021/04/21 11:08:53;;;;;;;5.30;2.65;;;;;;;30.74;19.01;100392.88;4900263;28;125632;-59
2021/04/21 11:11:34;;;;;;;5.40;3.10;;;;;;;31.55;18.11;100387.88;4904456;28;97967;-59
2021/04/21 11:14:00;;;;;;;;;;;;;;;28.79;20.24;100389.97;4903346;28;99589;-58
2021/04/21 11:16:32;;;;;;;5.97;2.78;;;;;;;26.81;22.18;100394.56;4903014;28;128571;-58
2021/04/21 11:19:20;;;;;;;6.38;3.05;;;;;;;27.09;22.15;100397.59;4904194;28;98172;-58
2021/04/21 11:21:48;;;;;;;5.20;3.20;;;;;;;28.78;20.50;100382.84;4904496;28;97815;-58
2021/04/21 11:24:14;;;;;;;3.83;2.88;;;;;;;29.10;20.09;100382.91;4903909;28;97996;-61
2021/04/21 11:26:47;;;;;;;5.03;2.60;;;;;;;30.23;19.11;100374.84;4903738;28;118307;-61
2021/04/21 11:29:15;;;;;;;5.30;2.58;;;;;;;29.57;20.50;100384.50;4903374;28;98537;-61
2021/04/21 11:31:50;;;;;;;4.07;2.20;;;;;;;30.35;20.07;100379.16;4904359;28;97921;-59
2021/04/21 11:34:20;;;;;;;3.83;2.45;;;;;;;28.03;21.80;100394.41;4903607;28;98449;-58
2021/04/21 11:37:09;;;;;;;8.18;2.65;;;;;;;26.60;22.54;100392.34;4904011;28;98297;-61
2021/04/21 11:39:44;;;;;;;4.78;2.55;;;;;;;27.36;21.41;100378.13;4904205;28;99899;-63
2021/04/21 11:42:30;;;;;;;6.00;2.53;;;;;;;28.40;20.64;100373.22;4904507;28;98081;-60
2021/04/21 11:45:11;;;;;;;3.38;2.58;;;;;;;26.84;22.35;100372.50;4904179;28;98409;-60
2021/04/21 11:47:42;;;;;;;5.13;2.75;;;;;;;25.11;23.38;100378.75;4904207;28;97903;-63
2021/04/21 11:50:17;;;;;;;5.07;2.65;;;;;;;24.92;23.96;100376.81;4904025;28;97870;-63
2021/04/21 11:53:06;;;;;;;3.85;2.20;;;;;;;25.90;23.06;100374.50;4904553;28;97946;-63
2021/04/21 11:55:39;;;;;;;5.32;2.58;;;;;;;24.57;25.38;100387.19;4901328;28;97877;-60
2021/04/21 11:58:21;;;;;;;7.72;2.58;;;;;;;25.67;23.68;100374.53;4903783;28;98523;-60
2021/04/21 12:01:09;;;;;;;3.67;2.50;;;;;;;24.59;24.19;100376.56;4901151;28;97900;-63
2021/04/21 12:03:40;;;;;;;5.35;2.55;;;;;;;25.69;23.51;100364.69;4903584;28;97925;-60